Time;durP1;ratioP1;P1;durP2;ratioP2;P2;SDS_P1;SDS_P2;PMS_P1;PMS_P2;Temp;Humidity;BMP_temperature;BMP_pressure;BME280_temperature;BME280_humidity;BME280_pressure;Samples;Min_cycle;Max_cycle;Signal;HPM_P1;HPM_P2
2023/03/12 11:23:29;;;;;;;;;25.75;21.75;;;;;20.28;42.68;100769.13;5146738;27;46744;-72
2023/03/12 11:26:01;;;;;;;;;67.25;44.75;;;;;20.37;42.63;100768.50;5113822;27;45739;-73
2023/03/12 11:28:39;;;;;;;;;46.50;33.75;;;;;20.58;43.36;100771.50;5128472;27;45576;-75
2023/03/12 11:31:08;;;;;;;;;44.25;30.50;;;;;20.75;42.45;100778.38;5104816;27;45302;-79
2023/03/12 11:33:34;;;;;;;;;30.50;18.50;;;;;20.81;41.13;100777.94;5093570;27;47170;-79
2023/03/12 11:36:03;;;;;;;;;35.25;22.75;;;;;20.80;41.37;100780.69;5093058;27;45507;-80
2023/03/12 11:39:05;;;;;;;;;31.00;22.75;;;;;20.71;40.49;100762.72;5108169;27;45547;-81
2023/03/12 11:41:58;;;;;;;;;37.25;26.75;;;;;20.70;40.76;100763.66;5114560;27;46975;-80
2023/03/12 11:44:27;;;;;;;;;32.25;25.75;;;;;20.70;40.23;100766.31;5093782;27;47390;-85
2023/03/12 11:47:10;;;;;;;;;54.00;36.75;;;;;20.77;41.16;100771.13;5107451;27;45857;-80
2023/03/12 11:49:51;;;;;;;;;50.75;32.75;;;;;20.90;41.06;100770.28;5119177;27;45346;-73
2023/03/12 11:53:11;;;;;;;;;45.75;31.00;;;;;21.03;41.05;100763.13;5120807;27;45493;-76
2023/03/12 11:55:55;;;;;;;;;34.00;27.00;;;;;21.18;40.90;100755.88;5086804;27;46863;-77
2023/03/12 11:58:24;;;;;;;;;43.50;32.50;;;;;21.29;41.12;100761.28;5108990;27;45341;-75
2023/03/12 12:00:58;;;;;;;;;49.00;30.25;;;;;21.39;41.12;100769.47;5131976;27;45330;-73
2023/03/12 12:03:31;;;;;;;;;47.00;33.00;;;;;21.50;41.31;100758.91;5121680;27;46942;-73
2023/03/12 12:06:21;;;;;;;;;39.00;25.25;;;;;21.60;41.33;100751.06;5119011;27;45520;-72
2023/03/12 12:08:54;;;;;;;;;40.75;31.00;;;;;21.67;40.75;100735.50;5135959;27;45347;-77
2023/03/12 12:11:27;;;;;;;;;46.00;32.75;;;;;21.76;41.12;100741.03;5108706;27;45378;-78
2023/03/12 12:14:02;;;;;;;;;44.75;29.25;;;;;21.84;40.95;100745.78;5081170;27;45688;-72
2023/03/12 12:16:56;;;;;;;;;33.75;26.00;;;;;21.91;41.12;100731.03;5084919;27;47688;-75
2023/03/12 12:19:39;;;;;;;;;43.25;26.00;;;;;21.96;40.62;100739.53;5111183;27;45534;-73
2023/03/12 12:22:11;;;;;;;;;43.50;30.50;;;;;22.03;41.00;100750.59;5111945;27;45560;-74
2023/03/12 12:25:07;;;;;;;;;37.00;25.50;;;;;22.08;40.28;100748.41;5104104;27;45402;-75
2023/03/12 12:28:12;;;;;;;;;34.75;26.50;;;;;22.12;40.50;100741.03;5130873;27;46673;-75
2023/03/12 12:30:57;;;;;;;;;25.00;15.50;;;;;22.19;40.50;100729.78;5037841;28;46959;-74
2023/03/12 12:33:38;;;;;;;;;29.50;25.00;;;;;22.23;40.85;100724.22;5102057;27;45477;-75
2023/03/12 12:36:04;;;;;;;;;31.00;20.75;;;;;22.22;40.62;100714.53;5090129;27;45658;-75
2023/03/12 12:38:41;;;;;;;;;24.75;20.00;;;;;22.30;40.59;100709.50;5078863;27;47226;-75
2023/03/12 12:41:27;;;;;;;;;29.75;21.75;;;;;22.31;40.07;100701.38;5087214;27;45933;-75
2023/03/12 12:44:03;;;;;;;;;28.25;22.25;;;;;22.33;40.24;100694.13;5076045;27;45216;-74
2023/03/12 12:46:32;;;;;;;;;29.00;21.00;;;;;22.35;40.09;100686.84;5100930;27;45756;-75
2023/03/12 12:49:07;;;;;;;;;20.00;18.50;;;;;22.36;40.09;100691.22;5100805;27;46411;-75
2023/03/12 12:51:36;;;;;;;;;28.75;24.00;;;;;22.39;39.94;100686.63;5107514;27;45492;-75
2023/03/12 12:54:42;;;;;;;;;22.75;17.25;;;;;22.41;40.00;100680.19;5097539;27;45489;-74
2023/03/12 12:57:24;;;;;;;;;27.00;18.75;;;;;22.43;40.03;100680.06;5025507;28;45377;-75
2023/03/12 13:00:12;;;;;;;;;22.75;16.00;;;;;22.44;39.99;100685.28;5076018;27;47497;-75
2023/03/12 13:02:39;;;;;;;;;22.00;17.50;;;;;22.46;40.09;100682.50;5092248;27;45242;-75
2023/03/12 13:05:19;;;;;;;;;18.25;14.00;;;;;22.44;40.04;100679.94;5109933;27;45366;-75
2023/03/12 13:07:45;;;;;;;;;30.75;19.25;;;;;22.46;39.96;100683.34;5107182;27;45476;-72
2023/03/12 13:10:32;;;;;;;;;26.50;21.25;;;;;22.48;39.60;100677.88;5089244;27;45454;-76
2023/03/12 13:12:58;;;;;;;;;25.00;20.75;;;;;22.49;39.70;100669.78;5111781;27;45363;-71
2023/03/12 13:15:27;;;;;;;;;26.75;19.00;;;;;22.50;40.23;100667.94;5090583;27;45363;-72
2023/03/12 13:17:55;;;;;;;;;23.00;15.75;;;;;22.52;39.68;100666.00;5111698;27;45443;-70
2023/03/12 13:20:23;;;;;;;;;24.25;16.50;;;;;22.53;39.58;100663.22;5106260;27;45530;-71
2023/03/12 13:23:08;;;;;;;;;31.25;18.00;;;;;22.55;39.46;100657.75;5098395;27;45482;-75
2023/03/12 13:26:05;;;;;;;;;28.00;18.75;;;;;22.53;39.39;100649.88;5109956;27;45427;-73
2023/03/12 13:28:53;;;;;;;;;18.00;14.00;;;;;22.59;39.40;100659.22;5068970;27;45367;-74
2023/03/12 13:31:28;;;;;;;;;18.50;15.00;;;;;22.64;39.30;100656.19;5092408;27;47662;-73
2023/03/12 13:33:57;;;;;;;;;18.50;14.25;;;;;22.65;38.93;100666.75;5108050;27;45738;-77
2023/03/12 13:36:27;;;;;;;;;20.00;14.00;;;;;22.67;39.47;100658.63;5097616;27;45467;-75
2023/03/12 13:38:56;;;;;;;;;20.50;16.25;;;;;22.69;39.39;100662.00;5090323;27;45748;-77
2023/03/12 13:41:44;;;;;;;;;16.50;11.00;;;;;22.70;38.91;100655.69;5112285;27;46083;-80
2023/03/12 13:44:21;;;;;;;;;16.00;11.50;;;;;22.73;39.02;100659.00;5108812;27;45567;-72
2023/03/12 13:46:48;;;;;;;;;15.25;10.50;;;;;22.71;38.98;100668.06;5100184;27;45520;-77
2023/03/12 13:49:15;;;;;;;;;21.50;14.25;;;;;22.70;39.43;100661.91;5111059;27;45530;-76
2023/03/12 13:52:07;;;;;;;;;20.00;15.00;;;;;22.75;39.25;100658.84;5070330;27;47110;-74
2023/03/12 13:54:33;;;;;;;;;20.00;17.00;;;;;22.73;38.89;100656.31;5100891;27;45900;-86
2023/03/12 13:57:20;;;;;;;;;16.50;9.75;;;;;22.76;38.90;100655.22;5096019;27;45429;-77
2023/03/12 13:59:48;;;;;;;;;19.50;14.25;;;;;22.79;38.77;100648.78;5091261;27;45390;-73
2023/03/12 14:02:22;;;;;;;;;15.50;11.25;;;;;22.69;38.90;100632.66;5110803;27;63838;-76
2023/03/12 14:04:48;;;;;;;;;15.75;11.50;;;;;22.78;39.00;100634.59;5096580;27;45421;-76
2023/03/12 14:07:27;;;;;;;;;15.75;8.50;;;;;22.81;38.85;100629.03;5108851;27;59978;-79
2023/03/12 14:10:04;;;;;;;;;13.50;9.50;;;;;22.81;38.60;100626.34;5093239;27;45466;-76
2023/03/12 14:12:36;;;;;;;;;13.75;8.50;;;;;22.78;38.39;100623.09;5110537;27;47098;-76
2023/03/12 14:15:17;;;;;;;;;10.00;7.25;;;;;22.82;38.94;100624.53;5115531;27;45273;-77
2023/03/12 14:17:43;;;;;;;;;12.25;11.00;;;;;22.81;38.46;100626.34;5084028;27;45401;-76
2023/03/12 14:20:20;;;;;;;;;11.00;7.75;;;;;22.78;38.73;100612.41;5110967;27;69877;-76
2023/03/12 14:22:52;;;;;;;;;14.50;9.00;;;;;22.81;38.94;100622.84;5085155;27;45970;-76
2023/03/12 14:25:36;;;;;;;;;9.00;8.75;;;;;22.81;38.87;100617.50;5099962;27;45823;-77
2023/03/12 14:28:03;;;;;;;;;9.25;7.75;;;;;22.81;38.64;100622.84;5085897;27;45499;-76
2023/03/12 14:31:01;;;;;;;;;7.25;6.25;;;;;22.79;38.30;100622.97;5089356;27;45410;-76
2023/03/12 14:33:32;;;;;;;;;13.75;6.75;;;;;22.79;38.34;100614.97;5070555;27;48649;-77
2023/03/12 14:36:04;;;;;;;;;11.25;7.50;;;;;22.77;38.50;100608.03;5098786;27;45580;-77
2023/03/12 14:38:33;;;;;;;;;7.50;6.50;;;;;22.76;38.73;100604.53;5091094;27;45545;-78
2023/03/12 14:41:15;;;;;;;;;10.75;6.75;;;;;22.77;38.43;100603.56;5083878;27;45412;-77
2023/03/12 14:43:42;;;;;;;;;7.50;6.00;;;;;22.74;38.74;100593.97;5102612;27;46651;-76
2023/03/12 14:46:19;;;;;;;;;7.25;6.25;;;;;22.75;38.04;100592.16;5078125;27;45300;-75
2023/03/12 14:48:49;;;;;;;;;8.50;6.50;;;;;22.71;38.40;100578.22;5074992;27;46875;-75
2023/03/12 14:51:24;;;;;;;;;7.00;5.75;;;;;22.74;38.63;100585.13;5096155;27;45539;-78
2023/03/12 14:53:49;;;;;;;;;9.75;8.00;;;;;22.72;38.54;100582.59;5108752;27;45649;-75
2023/03/12 14:56:31;;;;;;;;;10.00;7.25;;;;;22.72;38.38;100590.59;5108722;27;45368;-75
2023/03/12 14:58:58;;;;;;;;;7.00;5.25;;;;;22.73;38.48;100605.63;5077087;27;46955;-75
2023/03/12 15:01:29;;;;;;;;;9.50;6.75;;;;;22.73;38.07;100602.09;5106634;27;45641;-75
2023/03/12 15:04:04;;;;;;;;;9.75;7.00;;;;;22.75;38.48;100611.69;5106609;27;46823;-76
2023/03/12 15:06:36;;;;;;;;;8.00;6.00;;;;;22.70;38.33;100597.88;5087407;27;46015;-80
2023/03/12 15:09:04;;;;;;;;;8.50;5.25;;;;;22.73;37.93;100602.09;5088016;27;45500;-80
2023/03/12 15:11:32;;;;;;;;;5.75;4.75;;;;;22.69;37.88;100604.16;5085403;27;45502;-79
2023/03/12 15:14:07;;;;;;;;;8.00;5.00;;;;;22.75;38.13;100610.81;5082764;27;45710;-78
2023/03/12 15:16:32;;;;;;;;;6.00;5.25;;;;;22.73;37.96;100604.75;5089280;27;45634;-79
2023/03/12 15:18:58;;;;;;;;;6.75;5.00;;;;;22.69;38.34;100595.31;5101074;27;54189;-80
2023/03/12 15:21:24;;;;;;;;;5.75;5.50;;;;;22.67;37.84;100579.44;5104086;27;45482;-77
2023/03/12 15:23:49;;;;;;;;;7.50;5.50;;;;;22.69;38.11;100580.16;5104727;27;46309;-80
2023/03/12 15:26:18;;;;;;;;;8.50;6.50;;;;;22.74;37.74;100590.47;5088949;27;71110;-80
2023/03/12 15:28:56;;;;;;;;;9.50;7.25;;;;;22.71;37.83;100586.22;5113738;27;45289;-79
2023/03/12 15:31:22;;;;;;;;;6.75;6.25;;;;;22.72;38.20;100590.59;5081746;27;45505;-80
2023/03/12 15:34:00;;;;;;;;;5.00;5.00;;;;;22.70;37.86;100589.00;5098195;27;68838;-79
2023/03/12 15:36:27;;;;;;;;;12.25;6.00;;;;;22.74;38.38;100587.81;5081784;27;45718;-79
2023/03/12 15:38:56;;;;;;;;;8.50;6.00;;;;;22.70;38.09;100578.31;5088553;27;45420;-79
2023/03/12 15:41:27;;;;;;;;;8.25;4.00;;;;;22.66;37.77;100569.72;5081494;27;45454;-79
2023/03/12 15:43:56;;;;;;;;;6.00;4.00;;;;;22.75;38.03;100581.47;5084232;27;47433;-79
2023/03/12 15:46:23;;;;;;;;;9.25;4.50;;;;;22.71;37.82;100575.53;5122159;27;45837;-79
2023/03/12 15:48:57;;;;;;;;;7.50;4.00;;;;;22.74;38.27;100583.31;5105774;27;45383;-80
2023/03/12 15:51:32;;;;;;;;;5.75;4.25;;;;;22.72;37.83;100571.06;5099238;27;46135;-80
2023/03/12 15:53:59;;;;;;;;;8.25;4.00;;;;;22.70;38.06;100565.00;5111483;27;45422;-79
2023/03/12 15:56:25;;;;;;;;;4.00;4.00;;;;;22.75;37.96;100589.47;5099230;27;45489;-79
2023/03/12 15:59:19;;;;;;;;;4.75;4.75;;;;;22.76;37.94;100577.84;5086507;27;45323;-81
2023/03/12 16:01:49;;;;;;;;;7.75;5.50;;;;;22.70;37.50;100560.53;5073764;27;45544;-85
2023/03/12 16:04:15;;;;;;;;;8.25;6.00;;;;;22.69;38.02;100560.66;5099799;27;45703;-81
2023/03/12 16:06:42;;;;;;;;;6.00;4.75;;;;;22.77;38.17;100574.22;5076978;27;45585;-88
2023/03/12 16:09:12;;;;;;;;;7.50;3.00;;;;;22.75;37.92;100565.47;5106680;27;45269;-80
2023/03/12 16:11:38;;;;;;;;;7.50;5.25;;;;;22.79;38.03;100577.59;5112095;27;45522;-86
2023/03/12 16:14:07;;;;;;;;;8.75;3.00;;;;;22.78;37.54;100565.22;5097129;27;48834;-81
2023/03/12 16:16:32;;;;;;;;;5.00;1.75;;;;;22.77;37.28;100573.34;5104333;27;45932;-78
2023/03/12 16:18:57;;;;;;;;;2.50;2.25;;;;;22.73;37.46;100562.09;5096558;27;45378;-83
2023/03/12 16:21:23;;;;;;;;;5.00;4.00;;;;;22.70;37.33;100570.31;5104487;27;59827;-87
2023/03/12 16:23:48;;;;;;;;;5.25;3.50;;;;;22.66;37.18;100559.06;5094159;27;45502;-85
2023/03/12 16:26:14;;;;;;;;;3.75;3.00;;;;;22.64;36.81;100561.00;5123096;27;73324;-85
2023/03/12 16:28:40;;;;;;;;;5.50;1.00;;;;;22.62;36.63;100560.28;5104348;27;45541;-80
2023/03/12 16:31:13;;;;;;;;;2.50;2.00;;;;;22.60;36.99;100548.91;5104752;27;45408;-84
2023/03/12 16:33:41;;;;;;;;;6.25;3.00;;;;;22.59;37.25;100543.69;5097677;27;45288;-83
2023/03/12 16:36:12;;;;;;;;;6.00;2.00;;;;;22.59;37.18;100546.34;5111930;27;45608;-83
2023/03/12 16:38:38;;;;;;;;;4.50;3.00;;;;;22.59;37.09;100535.69;5098420;27;45473;-81
2023/03/12 16:41:03;;;;;;;;;2.75;1.50;;;;;22.60;36.85;100545.38;5088109;27;46454;-89
2023/03/12 16:43:29;;;;;;;;;5.00;4.50;;;;;22.62;36.88;100543.44;5114149;27;46283;-80
2023/03/12 16:45:56;;;;;;;;;5.75;2.00;;;;;22.58;37.44;100539.34;5076495;27;74385;-79
2023/03/12 16:48:25;;;;;;;;;6.00;3.00;;;;;22.60;36.98;100538.22;5109870;27;45406;-73
2023/03/12 16:50:53;;;;;;;;;6.00;2.50;;;;;22.60;37.14;100540.91;5087407;27;45588;-80
2023/03/12 16:53:19;;;;;;;;;8.75;2.25;;;;;22.59;37.22;100541.84;5110376;27;45489;-81
2023/03/12 16:55:51;;;;;;;;;2.00;1.75;;;;;22.63;37.54;100539.78;5102198;27;45595;-82
2023/03/12 16:58:18;;;;;;;;;4.50;2.50;;;;;22.63;37.30;100531.78;5103127;27;45389;-83
2023/03/12 17:00:44;;;;;;;;;7.75;2.00;;;;;22.62;37.64;100524.78;5087935;27;45446;-82
2023/03/12 17:03:31;;;;;;;;;6.25;3.50;;;;;22.62;37.26;100530.94;5098095;27;45489;-83
2023/03/12 17:05:57;;;;;;;;;5.75;3.00;;;;;22.61;37.68;100515.06;5094282;27;45683;-82
2023/03/12 17:08:22;;;;;;;;;5.75;4.00;;;;;22.62;37.36;100506.09;5103943;27;45252;-81
2023/03/12 17:10:47;;;;;;;;;5.25;3.00;;;;;22.62;37.36;100506.09;5111146;27;53707;-81
2023/03/12 17:13:18;;;;;;;;;7.00;3.00;;;;;22.63;37.15;100508.66;5096418;27;66897;-82
2023/03/12 17:15:44;;;;;;;;;3.25;3.00;;;;;22.62;37.26;100506.94;5114039;27;45263;-81
2023/03/12 17:18:10;;;;;;;;;3.00;3.00;;;;;22.62;37.35;100495.44;5099639;27;67560;-82
2023/03/12 17:20:37;;;;;;;;;4.25;2.00;;;;;22.63;37.65;100491.78;5111261;27;45495;-81
2023/03/12 17:23:03;;;;;;;;;3.00;1.00;;;;;22.61;37.55;100470.59;5096450;27;47259;-81
2023/03/12 17:25:31;;;;;;;;;2.50;2.50;;;;;22.64;37.45;100472.13;5102255;27;45730;-82
2023/03/12 17:27:56;;;;;;;;;5.25;3.00;;;;;22.66;37.40;100464.84;5076914;27;47032;-83
2023/03/12 17:30:22;;;;;;;;;5.50;3.75;;;;;22.63;37.46;100447.31;5118351;27;45366;-82
2023/03/12 17:32:48;;;;;;;;;3.75;2.75;;;;;22.68;37.40;100454.91;5100730;27;48367;-81
2023/03/12 17:35:14;;;;;;;;;4.50;1.25;;;;;22.69;37.35;100461.94;5114365;27;45362;-81
2023/03/12 17:37:39;;;;;;;;;2.50;2.00;;;;;22.66;37.08;100456.84;5082770;27;64847;-81
2023/03/12 17:40:07;;;;;;;;;4.75;2.75;;;;;22.68;37.35;100465.56;5089888;27;45620;-81
2023/03/12 17:42:34;;;;;;;;;3.25;2.00;;;;;22.72;37.54;100478.53;5114398;27;45433;-81
2023/03/12 17:45:00;;;;;;;;;3.00;1.50;;;;;22.70;37.16;100467.16;5092220;27;45443;-80
2023/03/12 17:47:26;;;;;;;;;3.75;2.00;;;;;22.68;37.05;100454.91;5082539;27;45307;-77
2023/03/12 17:49:52;;;;;;;;;2.50;2.00;;;;;22.74;37.49;100465.91;5107937;27;45476;-77
2023/03/12 17:52:17;;;;;;;;;3.00;1.75;;;;;22.71;37.66;100460.84;5111023;27;76836;-77
2023/03/12 17:54:42;;;;;;;;;8.00;2.50;;;;;22.69;37.55;100454.78;5094688;27;45468;-77
2023/03/12 17:57:08;;;;;;;;;6.25;3.00;;;;;22.73;37.55;100464.25;5092480;27;60331;-76
2023/03/12 17:59:33;;;;;;;;;6.00;4.25;;;;;22.75;37.68;100458.75;5096039;27;64067;-77
2023/03/12 18:01:58;;;;;;;;;5.25;2.00;;;;;22.75;37.58;100454.28;5094325;27;46370;-77
2023/03/12 18:04:24;;;;;;;;;5.75;3.00;;;;;22.73;37.51;100450.03;5097861;27;67944;-77
2023/03/12 18:06:49;;;;;;;;;7.50;3.75;;;;;22.75;37.96;100445.41;5089212;27;67105;-76
2023/03/12 18:09:14;;;;;;;;;6.25;3.75;;;;;22.73;38.04;100450.91;5104771;27;69434;-77
2023/03/12 18:11:40;;;;;;;;;8.00;3.00;;;;;22.70;38.17;100440.47;5085220;27;45686;-76
2023/03/12 18:14:05;;;;;;;;;4.25;2.50;;;;;22.73;38.06;100448.25;5101321;27;58416;-77
2023/03/12 18:16:30;;;;;;;;;3.75;3.00;;;;;22.73;38.02;100445.56;5087045;27;45507;-77
2023/03/12 18:18:56;;;;;;;;;4.00;4.00;;;;;22.71;38.06;100425.31;5101574;27;55877;-77
2023/03/12 18:21:21;;;;;;;;;4.00;3.00;;;;;22.74;38.14;100441.91;5105116;27;45544;-77
2023/03/12 18:23:47;;;;;;;;;8.75;3.00;;;;;22.73;38.03;100445.56;5084771;27;48704;-76
2023/03/12 18:26:12;;;;;;;;;5.50;4.75;;;;;22.74;37.68;100438.41;5102093;27;45333;-76
2023/03/12 18:28:37;;;;;;;;;6.50;4.75;;;;;22.72;38.03;100441.19;5084083;27;45348;-76
2023/03/12 18:31:03;;;;;;;;;8.00;4.50;;;;;22.74;38.29;100433.06;5116545;27;64711;-76
2023/03/12 18:33:29;;;;;;;;;4.00;4.00;;;;;22.71;37.92;100433.31;5091739;27;45462;-76
2023/03/12 18:35:55;;;;;;;;;7.50;6.75;;;;;22.74;38.23;100427.72;5115904;27;45366;-74
2023/03/12 18:38:21;;;;;;;;;6.75;6.00;;;;;22.69;38.29;100420.09;5067058;27;45497;-76
2023/03/12 18:40:46;;;;;;;;;7.00;6.00;;;;;22.71;37.90;100420.81;5085207;27;46881;-77
2023/03/12 18:43:12;;;;;;;;;6.75;4.25;;;;;22.73;38.45;100410.03;5101469;27;63037;-76
2023/03/12 18:45:41;;;;;;;;;7.00;5.50;;;;;22.69;38.17;100411.25;5119657;27;45328;-73
2023/03/12 18:48:06;;;;;;;;;9.25;8.00;;;;;22.66;38.18;100404.34;5073600;27;45362;-74
2023/03/12 18:50:32;;;;;;;;;8.50;7.00;;;;;22.69;38.11;100403.25;5071718;27;61705;-74
2023/03/12 18:52:57;;;;;;;;;8.75;7.25;;;;;22.65;37.83;100399.16;5086005;27;63664;-74
2023/03/12 18:55:23;;;;;;;;;5.25;5.00;;;;;22.63;38.11;100396.63;5094455;27;45488;-73
2023/03/12 18:57:48;;;;;;;;;9.25;6.25;;;;;22.68;38.59;100397.09;5087075;27;45595;-77
2023/03/12 19:00:16;;;;;;;;;8.50;5.00;;;;;22.69;38.42;100392.59;5098368;27;64321;-69
2023/03/12 19:02:42;;;;;;;;;5.25;4.00;;;;;22.69;38.29;100385.41;5089884;27;45395;-71
2023/03/12 19:05:09;;;;;;;;;10.50;5.75;;;;;22.66;37.96;100388.34;5096216;27;45379;-70
2023/03/12 19:07:35;;;;;;;;;8.25;4.25;;;;;22.67;38.63;100382.03;5121028;27;45579;-69
2023/03/12 19:10:01;;;;;;;;;10.00;5.25;;;;;22.69;37.94;100384.59;5108177;27;47020;-71
2023/03/12 19:12:26;;;;;;;;;8.75;4.00;;;;;22.67;38.48;100382.03;5106223;27;45271;-74
2023/03/12 19:14:51;;;;;;;;;5.00;5.00;;;;;22.65;38.17;100381.34;5095557;27;45712;-74
2023/03/12 19:17:17;;;;;;;;;9.00;6.00;;;;;22.64;38.25;100373.44;5110451;27;68610;-70
2023/03/12 19:19:42;;;;;;;;;13.75;9.25;;;;;22.62;38.41;100370.91;5113480;27;46231;-72
2023/03/12 19:22:07;;;;;;;;;13.75;9.00;;;;;22.59;38.68;100357.81;5068440;27;48354;-74
2023/03/12 19:24:33;;;;;;;;;14.00;8.25;;;;;22.63;38.60;100369.94;5104529;27;55584;-80
2023/03/12 19:26:58;;;;;;;;;15.50;9.75;;;;;22.64;38.59;100365.44;5081230;27;45691;-73
2023/03/12 19:29:23;;;;;;;;;14.75;9.00;;;;;22.61;38.55;100361.22;5105983;27;74243;-74
2023/03/12 19:31:49;;;;;;;;;14.50;10.25;;;;;22.65;38.59;100356.50;5093407;27;45445;-79
2023/03/12 19:34:16;;;;;;;;;19.25;13.75;;;;;22.64;39.00;100354.78;5105018;27;45382;-83
2023/03/12 19:36:41;;;;;;;;;19.75;14.50;;;;;22.64;38.72;100344.13;5106513;27;45591;-82
2023/03/12 19:39:07;;;;;;;;;128.75;103.25;;;;;22.64;39.15;100349.44;5105926;27;46383;-78
2023/03/12 19:41:32;;;;;;;;;29.50;22.50;;;;;22.65;38.17;100352.00;5093384;27;45502;-74
2023/03/12 19:43:58;;;;;;;;;29.50;21.50;;;;;22.39;37.72;100340.81;5111552;27;45480;-76
2023/03/12 19:46:23;;;;;;;;;26.50;22.50;;;;;22.12;37.78;100341.25;5081240;27;45439;-75
2023/03/12 19:48:48;;;;;;;;;7.75;7.00;;;;;21.90;38.32;100352.81;5103023;27;59150;-73
2023/03/12 19:51:14;;;;;;;;;14.00;10.00;;;;;21.61;38.18;100348.00;5098165;27;45426;-77
2023/03/12 19:53:42;;;;;;;;;12.50;10.00;;;;;21.36;38.87;100351.75;5104945;27;45454;-85
2023/03/12 19:56:07;;;;;;;;;11.50;6.50;;;;;21.14;38.73;100350.75;5096809;27;45487;-75
2023/03/12 19:58:33;;;;;;;;;10.00;8.00;;;;;20.95;39.48;100340.69;5107758;27;45629;-75
2023/03/12 20:00:59;;;;;;;;;9.00;8.00;;;;;20.77;39.90;100336.75;5105334;27;69072;-76
2023/03/12 20:03:25;;;;;;;;;7.00;5.25;;;;;20.56;39.85;100331.25;5107938;27;45401;-73
2023/03/12 20:05:51;;;;;;;;;7.00;4.00;;;;;20.48;39.95;100331.81;5089569;27;45656;-75
2023/03/12 20:08:19;;;;;;;;;7.00;6.00;;;;;20.32;40.43;100331.25;5118861;27;45928;-81
2023/03/12 20:10:46;;;;;;;;;12.50;7.00;;;;;20.18;41.16;100337.59;5106409;27;45458;-80
2023/03/12 20:13:16;;;;;;;;;5.75;5.00;;;;;20.04;41.18;100338.59;5119570;27;45342;-87
2023/03/12 20:15:45;;;;;;;;;6.00;5.00;;;;;19.89;41.56;100328.13;5115155;27;45435;-84
2023/03/12 20:18:11;;;;;;;;;9.00;5.00;;;;;19.80;41.63;100331.47;5095207;27;45453;-89
2023/03/12 20:20:36;;;;;;;;;10.75;5.50;;;;;19.69;42.11;100323.41;5092733;27;45296;-84
2023/03/12 20:23:01;;;;;;;;;37.75;28.75;;;;;19.62;43.02;100322.13;5115150;27;61288;-76
2023/03/12 20:25:29;;;;;;;;;24.75;19.00;;;;;19.54;43.02;100310.25;5103010;27;49331;-77
2023/03/12 20:27:56;;;;;;;;;17.00;13.50;;;;;19.63;43.68;100316.72;5118501;27;46299;-76
2023/03/12 20:30:21;;;;;;;;;18.00;13.50;;;;;19.76;43.57;100313.19;5091598;27;45284;-77
2023/03/12 20:32:47;;;;;;;;;23.25;13.75;;;;;19.85;43.41;100297.47;5084416;27;45399;-78
2023/03/12 20:35:12;;;;;;;;;16.00;12.75;;;;;19.98;43.50;100299.22;5086788;27;45565;-77
2023/03/12 20:37:37;;;;;;;;;14.00;9.50;;;;;20.10;43.32;100304.47;5106301;27;75874;-78
2023/03/12 20:40:04;;;;;;;;;12.25;9.00;;;;;20.20;43.50;100294.03;5084984;27;53034;-77
2023/03/12 20:42:29;;;;;;;;;10.00;8.50;;;;;20.32;43.20;100296.72;5112058;27;45263;-78
2023/03/12 20:44:54;;;;;;;;;10.75;8.00;;;;;20.38;42.78;100281.16;5095996;27;72090;-77
2023/03/12 20:47:21;;;;;;;;;10.00;6.75;;;;;20.49;42.72;100283.84;5073368;27;45499;-76
2023/03/12 20:49:46;;;;;;;;;10.50;7.75;;;;;20.59;42.29;100289.31;5116821;27;45385;-75
2023/03/12 20:52:12;;;;;;;;;7.25;7.00;;;;;20.60;42.13;100256.44;5074108;27;45296;-75
2023/03/12 20:54:38;;;;;;;;;9.00;8.75;;;;;20.82;42.23;100282.28;5080729;27;48236;-76
2023/03/12 20:57:03;;;;;;;;;8.00;6.50;;;;;20.93;42.26;100275.25;5090731;27;47069;-76
2023/03/12 20:59:28;;;;;;;;;7.75;6.75;;;;;20.99;42.13;100272.13;5067873;27;45249;-76
2023/03/12 21:01:54;;;;;;;;;8.25;5.25;;;;;21.11;41.82;100283.63;5079927;27;45431;-76
2023/03/12 21:04:19;;;;;;;;;7.75;6.00;;;;;21.18;41.92;100268.88;5119590;27;45543;-76
2023/03/12 21:06:50;;;;;;;;;9.25;6.00;;;;;21.24;41.38;100268.38;5084912;27;64538;-76
2023/03/12 21:09:15;;;;;;;;;6.25;6.25;;;;;21.33;41.74;100266.78;5108564;27;45297;-76
2023/03/12 21:11:41;;;;;;;;;7.75;6.75;;;;;21.41;41.42;100261.72;5081919;27;45457;-77
2023/03/12 21:14:06;;;;;;;;;8.00;6.00;;;;;21.46;41.72;100258.69;5114711;27;45367;-78
2023/03/12 21:16:31;;;;;;;;;6.00;5.00;;;;;21.51;41.37;100251.19;5118674;27;65023;-78
2023/03/12 21:18:57;;;;;;;;;7.50;5.75;;;;;21.56;41.02;100252.50;5103474;27;64731;-78
2023/03/12 21:21:22;;;;;;;;;6.00;4.25;;;;;21.64;41.23;100248.38;5098693;27;49239;-78
2023/03/12 21:23:48;;;;;;;;;9.00;3.25;;;;;21.69;41.22;100251.50;5097737;27;45658;-78
2023/03/12 21:26:13;;;;;;;;;4.00;3.00;;;;;21.71;41.26;100236.25;5080788;27;60584;-78
2023/03/12 21:28:38;;;;;;;;;4.50;3.25;;;;;21.78;40.81;100237.47;5120859;27;45421;-78
2023/03/12 21:31:06;;;;;;;;;5.50;4.00;;;;;21.83;40.88;100234.41;5096013;27;45415;-78
2023/03/12 21:33:31;;;;;;;;;7.75;4.00;;;;;21.83;40.76;100227.25;5084763;27;46024;-78
2023/03/12 21:35:56;;;;;;;;;6.00;4.00;;;;;21.83;41.17;100218.41;5083188;27;46252;-78
2023/03/12 21:38:22;;;;;;;;;4.25;3.00;;;;;21.89;41.09;100213.44;5097195;27;55937;-78
2023/03/12 21:40:47;;;;;;;;;4.50;4.00;;;;;21.94;40.79;100229.88;5120931;27;51754;-78
2023/03/12 21:43:13;;;;;;;;;2.75;1.75;;;;;21.90;40.64;100212.47;5084295;27;45523;-78
2023/03/12 21:45:40;;;;;;;;;4.00;2.75;;;;;21.93;40.93;100214.88;5084601;27;45646;-77
2023/03/12 21:48:06;;;;;;;;;4.00;2.75;;;;;22.02;41.08;100229.25;5094894;27;45765;-78
2023/03/12 21:50:31;;;;;;;;;5.50;4.00;;;;;22.04;41.23;100213.97;5097423;27;45520;-78
2023/03/12 21:52:59;;;;;;;;;2.75;2.75;;;;;22.03;40.80;100214.09;5079687;27;45470;-78
2023/03/12 21:55:25;;;;;;;;;5.25;3.00;;;;;22.04;41.07;100213.13;5088952;27;46144;-78
2023/03/12 21:57:50;;;;;;;;;4.00;3.00;;;;;22.10;40.93;100218.81;5093646;27;66816;-78
2023/03/12 22:00:16;;;;;;;;;4.25;2.25;;;;;22.11;40.74;100215.16;5089585;27;66021;-77
2023/03/12 22:02:45;;;;;;;;;2.00;2.00;;;;;22.09;40.60;100214.44;5092325;27;45402;-77
2023/03/12 22:05:11;;;;;;;;;5.25;2.25;;;;;22.12;41.00;100216.84;5086286;27;46981;-77
2023/03/12 22:07:36;;;;;;;;;2.00;2.00;;;;;22.16;40.33;100214.78;5091202;27;45252;-77
2023/03/12 22:10:04;;;;;;;;;4.50;2.50;;;;;22.17;40.92;100208.47;5094814;27;45348;-77
2023/03/12 22:12:29;;;;;;;;;4.25;2.50;;;;;22.13;40.90;100215.03;5102873;27;45679;-76
2023/03/12 22:14:55;;;;;;;;;3.00;1.25;;;;;22.17;40.42;100222.63;5103671;27;45666;-76
2023/03/12 22:17:20;;;;;;;;;3.00;3.00;;;;;22.17;40.65;100214.66;5093609;27;45450;-76
2023/03/12 22:19:46;;;;;;;;;1.75;1.75;;;;;22.18;40.54;100224.31;5079963;27;45473;-76
2023/03/12 22:22:11;;;;;;;;;2.00;1.75;;;;;22.19;40.71;100215.34;5079085;27;45734;-76
2023/03/12 22:24:37;;;;;;;;;4.00;2.00;;;;;22.23;40.43;100215.94;5072897;28;46975;-76
2023/03/12 22:27:05;;;;;;;;;3.50;2.50;;;;;22.23;41.07;100213.28;5079664;27;45486;-76
2023/03/12 22:29:30;;;;;;;;;3.75;2.00;;;;;22.21;40.48;100206.41;5088997;27;45447;-76
2023/03/12 22:31:56;;;;;;;;;2.25;2.25;;;;;22.24;40.31;100200.78;5083874;27;50841;-76
2023/03/12 22:34:21;;;;;;;;;2.00;2.00;;;;;22.25;40.73;100194.50;5072848;27;46570;-77
2023/03/12 22:36:47;;;;;;;;;2.00;2.00;;;;;22.23;40.67;100185.78;5081440;27;45390;-77
2023/03/12 22:39:12;;;;;;;;;1.50;1.00;;;;;22.22;40.47;100178.75;5063675;27;45373;-77
2023/03/12 22:41:37;;;;;;;;;1.00;1.00;;;;;22.25;40.68;100187.31;5088830;27;54628;-77
2023/03/12 22:44:06;;;;;;;;;3.25;2.00;;;;;22.25;40.73;100182.00;5067458;27;75929;-78
2023/03/12 22:46:32;;;;;;;;;2.00;2.00;;;;;22.24;40.49;100177.66;5092272;27;45398;-77
2023/03/12 22:49:00;;;;;;;;;2.25;2.25;;;;;22.27;40.93;100182.75;5092484;27;45436;-77
2023/03/12 22:51:27;;;;;;;;;4.00;2.00;;;;;22.24;40.65;100150.13;5074392;27;45477;-76
2023/03/12 22:53:52;;;;;;;;;2.00;2.00;;;;;22.27;40.85;100164.09;5087127;27;45401;-76